sensor_id;sensor_type;location;lat;lon;timestamp;P1;durP1;ratioP1;P2;durP2;ratioP2
21647;SDS011;10985;54.182;7.890;2023-07-24T00:00:19;34.00;;;9.18;;
21647;SDS011;10985;54.182;7.890;2023-07-24T00:02:45;34.53;;;9.02;;
21647;SDS011;10985;54.182;7.890;2023-07-24T00:05:11;42.65;;;10.05;;
21647;SDS011;10985;54.182;7.890;2023-07-24T00:07:36;42.78;;;10.43;;
21647;SDS011;10985;54.182;7.890;2023-07-24T00:10:02;30.88;;;9.77;;
21647;SDS011;10985;54.182;7.890;2023-07-24T00:12:29;41.90;;;10.15;;
21647;SDS011;10985;54.182;7.890;2023-07-24T00:14:54;44.00;;;10.15;;
21647;SDS011;10985;54.182;7.890;2023-07-24T00:17:20;42.90;;;10.98;;
21647;SDS011;10985;54.182;7.890;2023-07-24T00:19:45;45.83;;;10.90;;
21647;SDS011;10985;54.182;7.890;2023-07-24T00:22:11;35.42;;;10.05;;
21647;SDS011;10985;54.182;7.890;2023-07-24T00:24:37;34.85;;;10.13;;
21647;SDS011;10985;54.182;7.890;2023-07-24T00:27:02;30.73;;;10.18;;
21647;SDS011;10985;54.182;7.890;2023-07-24T00:29:28;40.38;;;10.48;;
21647;SDS011;10985;54.182;7.890;2023-07-24T00:31:53;38.28;;;10.38;;
21647;SDS011;10985;54.182;7.890;2023-07-24T00:34:19;34.60;;;11.15;;
21647;SDS011;10985;54.182;7.890;2023-07-24T00:36:44;37.97;;;10.82;;
21647;SDS011;10985;54.182;7.890;2023-07-24T00:39:10;39.85;;;10.73;;
21647;SDS011;10985;54.182;7.890;2023-07-24T00:41:36;33.78;;;10.57;;
21647;SDS011;10985;54.182;7.890;2023-07-24T00:44:02;45.33;;;11.43;;
21647;SDS011;10985;54.182;7.890;2023-07-24T00:46:27;52.17;;;11.55;;
21647;SDS011;10985;54.182;7.890;2023-07-24T00:48:57;43.65;;;11.85;;
21647;SDS011;10985;54.182;7.890;2023-07-24T00:51:26;41.00;;;11.60;;
21647;SDS011;10985;54.182;7.890;2023-07-24T00:53:55;38.15;;;11.40;;
21647;SDS011;10985;54.182;7.890;2023-07-24T00:56:22;42.30;;;11.63;;
21647;SDS011;10985;54.182;7.890;2023-07-24T00:58:48;41.83;;;10.93;;
21647;SDS011;10985;54.182;7.890;2023-07-24T01:01:14;43.00;;;12.38;;
21647;SDS011;10985;54.182;7.890;2023-07-24T01:03:41;46.75;;;12.10;;
21647;SDS011;10985;54.182;7.890;2023-07-24T01:06:08;49.72;;;12.38;;
21647;SDS011;10985;54.182;7.890;2023-07-24T01:08:36;52.22;;;13.25;;
21647;SDS011;10985;54.182;7.890;2023-07-24T01:11:21;45.97;;;12.32;;
21647;SDS011;10985;54.182;7.890;2023-07-24T01:13:53;40.65;;;12.25;;
21647;SDS011;10985;54.182;7.890;2023-07-24T01:16:25;44.40;;;13.15;;
21647;SDS011;10985;54.182;7.890;2023-07-24T01:18:57;45.70;;;13.30;;
21647;SDS011;10985;54.182;7.890;2023-07-24T01:21:29;49.55;;;13.00;;
21647;SDS011;10985;54.182;7.890;2023-07-24T01:24:14;53.00;;;14.15;;
21647;SDS011;10985;54.182;7.890;2023-07-24T01:26:54;30.25;;;7.50;;
21647;SDS011;10985;54.182;7.890;2023-07-24T01:29:20;21.77;;;4.72;;
21647;SDS011;10985;54.182;7.890;2023-07-24T01:31:45;44.67;;;5.82;;
21647;SDS011;10985;54.182;7.890;2023-07-24T01:34:11;32.72;;;5.68;;
21647;SDS011;10985;54.182;7.890;2023-07-24T01:36:36;24.15;;;4.10;;
21647;SDS011;10985;54.182;7.890;2023-07-24T01:39:02;26.67;;;3.65;;
21647;SDS011;10985;54.182;7.890;2023-07-24T01:41:28;15.63;;;3.88;;
21647;SDS011;10985;54.182;7.890;2023-07-24T01:43:53;21.30;;;3.50;;
21647;SDS011;10985;54.182;7.890;2023-07-24T01:46:19;27.10;;;4.28;;
21647;SDS011;10985;54.182;7.890;2023-07-24T01:48:44;19.50;;;3.40;;
21647;SDS011;10985;54.182;7.890;2023-07-24T01:51:11;20.63;;;3.83;;
21647;SDS011;10985;54.182;7.890;2023-07-24T01:53:36;23.30;;;4.13;;
21647;SDS011;10985;54.182;7.890;2023-07-24T01:56:02;17.58;;;3.53;;
21647;SDS011;10985;54.182;7.890;2023-07-24T01:58:28;17.05;;;3.58;;
21647;SDS011;10985;54.182;7.890;2023-07-24T02:00:54;18.55;;;4.13;;
21647;SDS011;10985;54.182;7.890;2023-07-24T02:03:21;23.60;;;3.72;;
21647;SDS011;10985;54.182;7.890;2023-07-24T02:05:49;19.40;;;3.95;;
21647;SDS011;10985;54.182;7.890;2023-07-24T02:08:16;16.52;;;3.63;;
21647;SDS011;10985;54.182;7.890;2023-07-24T02:10:41;17.75;;;3.47;;
21647;SDS011;10985;54.182;7.890;2023-07-24T02:13:07;15.18;;;3.30;;
21647;SDS011;10985;54.182;7.890;2023-07-24T02:15:33;22.42;;;3.55;;
21647;SDS011;10985;54.182;7.890;2023-07-24T02:17:58;16.60;;;3.20;;
21647;SDS011;10985;54.182;7.890;2023-07-24T02:20:24;10.90;;;2.88;;
21647;SDS011;10985;54.182;7.890;2023-07-24T02:22:49;14.95;;;3.28;;
21647;SDS011;10985;54.182;7.890;2023-07-24T02:25:15;14.45;;;3.13;;
21647;SDS011;10985;54.182;7.890;2023-07-24T02:27:40;19.92;;;3.80;;
21647;SDS011;10985;54.182;7.890;2023-07-24T02:30:06;15.55;;;3.05;;
21647;SDS011;10985;54.182;7.890;2023-07-24T02:32:32;13.40;;;3.45;;
21647;SDS011;10985;54.182;7.890;2023-07-24T02:34:57;19.00;;;3.00;;
21647;SDS011;10985;54.182;7.890;2023-07-24T02:37:23;14.05;;;3.30;;
21647;SDS011;10985;54.182;7.890;2023-07-24T02:39:48;15.85;;;2.90;;
21647;SDS011;10985;54.182;7.890;2023-07-24T02:42:14;14.05;;;3.45;;
21647;SDS011;10985;54.182;7.890;2023-07-24T02:44:39;9.70;;;2.72;;
21647;SDS011;10985;54.182;7.890;2023-07-24T02:47:05;12.82;;;2.35;;
21647;SDS011;10985;54.182;7.890;2023-07-24T02:49:30;10.40;;;2.60;;
21647;SDS011;10985;54.182;7.890;2023-07-24T02:51:56;11.98;;;2.83;;
21647;SDS011;10985;54.182;7.890;2023-07-24T02:54:22;9.45;;;2.55;;
21647;SDS011;10985;54.182;7.890;2023-07-24T02:56:47;9.00;;;2.38;;
21647;SDS011;10985;54.182;7.890;2023-07-24T02:59:13;12.43;;;2.67;;
21647;SDS011;10985;54.182;7.890;2023-07-24T03:01:38;9.98;;;2.70;;
21647;SDS011;10985;54.182;7.890;2023-07-24T03:04:04;13.85;;;3.13;;
21647;SDS011;10985;54.182;7.890;2023-07-24T03:06:31;9.10;;;2.70;;
21647;SDS011;10985;54.182;7.890;2023-07-24T03:08:56;16.40;;;3.10;;
21647;SDS011;10985;54.182;7.890;2023-07-24T03:11:22;11.32;;;3.33;;
21647;SDS011;10985;54.182;7.890;2023-07-24T03:13:47;11.73;;;3.03;;
21647;SDS011;10985;54.182;7.890;2023-07-24T03:16:13;12.68;;;2.97;;
21647;SDS011;10985;54.182;7.890;2023-07-24T03:18:38;16.10;;;3.00;;
21647;SDS011;10985;54.182;7.890;2023-07-24T03:21:04;11.13;;;2.67;;
21647;SDS011;10985;54.182;7.890;2023-07-24T03:23:30;17.58;;;5.30;;
21647;SDS011;10985;54.182;7.890;2023-07-24T03:25:55;7.63;;;2.95;;
21647;SDS011;10985;54.182;7.890;2023-07-24T03:28:21;17.10;;;2.83;;
21647;SDS011;10985;54.182;7.890;2023-07-24T03:30:46;13.43;;;3.05;;
21647;SDS011;10985;54.182;7.890;2023-07-24T03:33:12;9.18;;;3.08;;
21647;SDS011;10985;54.182;7.890;2023-07-24T03:35:38;11.82;;;2.90;;
21647;SDS011;10985;54.182;7.890;2023-07-24T03:38:04;8.52;;;2.80;;
21647;SDS011;10985;54.182;7.890;2023-07-24T03:40:30;11.55;;;2.70;;
21647;SDS011;10985;54.182;7.890;2023-07-24T03:42:55;11.70;;;3.10;;
21647;SDS011;10985;54.182;7.890;2023-07-24T03:45:21;10.50;;;2.33;;
21647;SDS011;10985;54.182;7.890;2023-07-24T03:47:46;8.45;;;2.80;;
21647;SDS011;10985;54.182;7.890;2023-07-24T03:50:12;9.32;;;2.65;;
21647;SDS011;10985;54.182;7.890;2023-07-24T03:52:37;9.38;;;2.70;;
21647;SDS011;10985;54.182;7.890;2023-07-24T03:55:03;11.10;;;2.40;;
21647;SDS011;10985;54.182;7.890;2023-07-24T03:57:29;10.27;;;2.85;;
21647;SDS011;10985;54.182;7.890;2023-07-24T03:59:54;10.23;;;2.50;;
21647;SDS011;10985;54.182;7.890;2023-07-24T04:02:20;10.93;;;2.60;;
21647;SDS011;10985;54.182;7.890;2023-07-24T04:04:45;13.00;;;3.13;;
21647;SDS011;10985;54.182;7.890;2023-07-24T04:07:12;9.65;;;2.53;;
21647;SDS011;10985;54.182;7.890;2023-07-24T04:09:37;7.25;;;2.67;;
21647;SDS011;10985;54.182;7.890;2023-07-24T04:12:03;7.38;;;2.90;;
21647;SDS011;10985;54.182;7.890;2023-07-24T04:14:29;7.80;;;2.80;;
21647;SDS011;10985;54.182;7.890;2023-07-24T04:16:54;11.35;;;2.58;;
21647;SDS011;10985;54.182;7.890;2023-07-24T04:19:20;9.50;;;2.80;;
21647;SDS011;10985;54.182;7.890;2023-07-24T04:21:46;8.55;;;2.60;;
21647;SDS011;10985;54.182;7.890;2023-07-24T04:24:11;7.72;;;3.22;;
21647;SDS011;10985;54.182;7.890;2023-07-24T04:26:37;7.53;;;2.63;;
21647;SDS011;10985;54.182;7.890;2023-07-24T04:29:04;12.93;;;3.10;;
21647;SDS011;10985;54.182;7.890;2023-07-24T04:31:30;6.10;;;2.90;;
21647;SDS011;10985;54.182;7.890;2023-07-24T04:33:55;10.30;;;2.85;;
21647;SDS011;10985;54.182;7.890;2023-07-24T04:36:21;9.77;;;2.85;;
21647;SDS011;10985;54.182;7.890;2023-07-24T04:38:46;11.75;;;3.13;;
21647;SDS011;10985;54.182;7.890;2023-07-24T04:41:12;12.55;;;3.03;;
21647;SDS011;10985;54.182;7.890;2023-07-24T04:43:38;11.25;;;3.25;;
21647;SDS011;10985;54.182;7.890;2023-07-24T04:46:03;6.03;;;2.70;;
21647;SDS011;10985;54.182;7.890;2023-07-24T04:48:29;12.77;;;3.10;;
21647;SDS011;10985;54.182;7.890;2023-07-24T04:50:54;10.50;;;2.80;;
21647;SDS011;10985;54.182;7.890;2023-07-24T04:53:21;10.70;;;2.60;;
21647;SDS011;10985;54.182;7.890;2023-07-24T04:55:46;15.55;;;3.38;;
21647;SDS011;10985;54.182;7.890;2023-07-24T04:58:12;12.57;;;2.60;;
21647;SDS011;10985;54.182;7.890;2023-07-24T05:00:37;9.65;;;2.90;;
21647;SDS011;10985;54.182;7.890;2023-07-24T05:03:03;6.80;;;2.70;;
21647;SDS011;10985;54.182;7.890;2023-07-24T05:05:28;10.80;;;2.67;;
21647;SDS011;10985;54.182;7.890;2023-07-24T05:07:54;6.15;;;2.35;;
21647;SDS011;10985;54.182;7.890;2023-07-24T05:10:19;10.07;;;2.28;;
21647;SDS011;10985;54.182;7.890;2023-07-24T05:12:45;12.13;;;2.75;;
21647;SDS011;10985;54.182;7.890;2023-07-24T05:15:11;7.05;;;2.30;;
21647;SDS011;10985;54.182;7.890;2023-07-24T05:17:36;7.88;;;2.42;;
21647;SDS011;10985;54.182;7.890;2023-07-24T05:20:02;8.35;;;2.65;;
21647;SDS011;10985;54.182;7.890;2023-07-24T05:22:27;8.40;;;2.17;;
21647;SDS011;10985;54.182;7.890;2023-07-24T05:24:53;9.50;;;2.78;;
21647;SDS011;10985;54.182;7.890;2023-07-24T05:27:18;6.35;;;2.28;;
21647;SDS011;10985;54.182;7.890;2023-07-24T05:29:44;6.88;;;2.47;;
21647;SDS011;10985;54.182;7.890;2023-07-24T05:32:09;8.13;;;2.05;;
21647;SDS011;10985;54.182;7.890;2023-07-24T05:34:35;7.93;;;2.10;;
21647;SDS011;10985;54.182;7.890;2023-07-24T05:37:00;6.90;;;2.20;;
21647;SDS011;10985;54.182;7.890;2023-07-24T05:39:26;8.02;;;3.08;;
21647;SDS011;10985;54.182;7.890;2023-07-24T05:41:51;5.00;;;2.03;;
21647;SDS011;10985;54.182;7.890;2023-07-24T05:44:17;7.85;;;2.28;;
21647;SDS011;10985;54.182;7.890;2023-07-24T05:46:42;3.80;;;1.98;;
21647;SDS011;10985;54.182;7.890;2023-07-24T05:49:08;9.13;;;2.63;;
21647;SDS011;10985;54.182;7.890;2023-07-24T05:51:33;4.63;;;2.13;;
21647;SDS011;10985;54.182;7.890;2023-07-24T05:53:59;7.53;;;2.13;;
21647;SDS011;10985;54.182;7.890;2023-07-24T05:56:24;6.70;;;2.00;;
21647;SDS011;10985;54.182;7.890;2023-07-24T06:01:18;7.07;;;1.98;;
21647;SDS011;10985;54.182;7.890;2023-07-24T06:03:43;9.13;;;2.38;;
21647;SDS011;10985;54.182;7.890;2023-07-24T06:06:09;8.48;;;2.83;;
21647;SDS011;10985;54.182;7.890;2023-07-24T06:08:34;7.05;;;2.75;;
21647;SDS011;10985;54.182;7.890;2023-07-24T06:11:00;8.20;;;2.53;;
21647;SDS011;10985;54.182;7.890;2023-07-24T06:13:25;9.63;;;2.38;;
21647;SDS011;10985;54.182;7.890;2023-07-24T06:15:51;7.72;;;2.05;;
21647;SDS011;10985;54.182;7.890;2023-07-24T06:18:19;8.02;;;2.85;;
21647;SDS011;10985;54.182;7.890;2023-07-24T06:20:45;6.18;;;2.42;;
21647;SDS011;10985;54.182;7.890;2023-07-24T06:23:10;11.57;;;2.70;;
21647;SDS011;10985;54.182;7.890;2023-07-24T06:25:36;6.30;;;2.42;;
21647;SDS011;10985;54.182;7.890;2023-07-24T06:28:01;7.30;;;2.08;;
21647;SDS011;10985;54.182;7.890;2023-07-24T06:30:27;5.00;;;2.45;;
21647;SDS011;10985;54.182;7.890;2023-07-24T06:32:52;11.52;;;2.67;;
21647;SDS011;10985;54.182;7.890;2023-07-24T06:35:18;6.18;;;2.33;;
21647;SDS011;10985;54.182;7.890;2023-07-24T06:37:43;9.07;;;2.70;;
21647;SDS011;10985;54.182;7.890;2023-07-24T06:40:10;7.47;;;2.50;;
21647;SDS011;10985;54.182;7.890;2023-07-24T06:42:36;6.45;;;2.45;;
21647;SDS011;10985;54.182;7.890;2023-07-24T06:45:02;7.28;;;2.33;;
21647;SDS011;10985;54.182;7.890;2023-07-24T06:47:27;8.65;;;2.88;;
21647;SDS011;10985;54.182;7.890;2023-07-24T06:49:53;6.85;;;2.30;;
21647;SDS011;10985;54.182;7.890;2023-07-24T06:52:18;6.10;;;2.03;;
21647;SDS011;10985;54.182;7.890;2023-07-24T06:54:44;5.25;;;1.60;;
21647;SDS011;10985;54.182;7.890;2023-07-24T06:57:09;6.53;;;2.70;;
21647;SDS011;10985;54.182;7.890;2023-07-24T06:59:35;9.70;;;2.83;;
21647;SDS011;10985;54.182;7.890;2023-07-24T07:02:00;7.97;;;2.10;;
21647;SDS011;10985;54.182;7.890;2023-07-24T07:04:26;8.18;;;2.22;;
21647;SDS011;10985;54.182;7.890;2023-07-24T07:06:51;7.72;;;2.42;;
21647;SDS011;10985;54.182;7.890;2023-07-24T07:09:17;8.43;;;2.78;;
21647;SDS011;10985;54.182;7.890;2023-07-24T07:11:42;8.70;;;3.08;;
21647;SDS011;10985;54.182;7.890;2023-07-24T07:14:08;10.80;;;2.75;;
21647;SDS011;10985;54.182;7.890;2023-07-24T07:16:34;9.25;;;2.58;;
21647;SDS011;10985;54.182;7.890;2023-07-24T07:19:00;10.35;;;3.00;;
21647;SDS011;10985;54.182;7.890;2023-07-24T07:21:25;8.77;;;2.30;;
21647;SDS011;10985;54.182;7.890;2023-07-24T07:23:51;10.55;;;2.80;;
21647;SDS011;10985;54.182;7.890;2023-07-24T07:26:16;7.82;;;2.25;;
21647;SDS011;10985;54.182;7.890;2023-07-24T07:28:42;8.63;;;2.50;;
21647;SDS011;10985;54.182;7.890;2023-07-24T07:31:09;7.43;;;2.25;;
21647;SDS011;10985;54.182;7.890;2023-07-24T07:33:35;10.25;;;2.60;;
21647;SDS011;10985;54.182;7.890;2023-07-24T07:36:01;5.38;;;2.22;;
21647;SDS011;10985;54.182;7.890;2023-07-24T07:38:26;4.95;;;2.05;;
21647;SDS011;10985;54.182;7.890;2023-07-24T07:40:52;7.50;;;2.10;;
21647;SDS011;10985;54.182;7.890;2023-07-24T07:43:18;5.50;;;2.00;;
21647;SDS011;10985;54.182;7.890;2023-07-24T07:45:43;12.75;;;2.33;;
21647;SDS011;10985;54.182;7.890;2023-07-24T07:48:09;4.93;;;2.20;;
21647;SDS011;10985;54.182;7.890;2023-07-24T07:50:34;9.60;;;2.33;;
21647;SDS011;10985;54.182;7.890;2023-07-24T07:53:00;7.32;;;2.65;;
21647;SDS011;10985;54.182;7.890;2023-07-24T07:55:25;5.05;;;1.88;;
21647;SDS011;10985;54.182;7.890;2023-07-24T07:57:51;6.32;;;1.90;;
21647;SDS011;10985;54.182;7.890;2023-07-24T08:00:16;7.95;;;2.13;;
21647;SDS011;10985;54.182;7.890;2023-07-24T08:02:42;7.40;;;2.20;;
21647;SDS011;10985;54.182;7.890;2023-07-24T08:05:08;8.93;;;2.25;;
21647;SDS011;10985;54.182;7.890;2023-07-24T08:07:35;6.68;;;1.67;;
21647;SDS011;10985;54.182;7.890;2023-07-24T08:10:01;9.85;;;2.40;;
21647;SDS011;10985;54.182;7.890;2023-07-24T08:12:27;9.75;;;2.25;;
21647;SDS011;10985;54.182;7.890;2023-07-24T08:14:53;9.80;;;2.10;;
21647;SDS011;10985;54.182;7.890;2023-07-24T08:17:18;8.68;;;2.33;;
21647;SDS011;10985;54.182;7.890;2023-07-24T08:19:44;6.72;;;2.08;;
21647;SDS011;10985;54.182;7.890;2023-07-24T08:22:10;8.85;;;2.00;;
21647;SDS011;10985;54.182;7.890;2023-07-24T08:24:36;7.07;;;1.98;;
21647;SDS011;10985;54.182;7.890;2023-07-24T08:27:01;9.57;;;2.38;;
21647;SDS011;10985;54.182;7.890;2023-07-24T08:29:27;9.15;;;2.30;;
21647;SDS011;10985;54.182;7.890;2023-07-24T08:31:53;8.95;;;2.42;;
21647;SDS011;10985;54.182;7.890;2023-07-24T08:34:18;8.55;;;2.25;;
21647;SDS011;10985;54.182;7.890;2023-07-24T08:36:44;14.85;;;3.03;;
21647;SDS011;10985;54.182;7.890;2023-07-24T08:39:09;7.63;;;2.63;;
21647;SDS011;10985;54.182;7.890;2023-07-24T08:41:36;6.93;;;2.33;;
21647;SDS011;10985;54.182;7.890;2023-07-24T08:44:02;8.20;;;2.38;;
21647;SDS011;10985;54.182;7.890;2023-07-24T08:46:29;9.95;;;2.00;;
21647;SDS011;10985;54.182;7.890;2023-07-24T08:48:55;8.93;;;2.47;;
21647;SDS011;10985;54.182;7.890;2023-07-24T08:51:21;11.15;;;2.65;;
21647;SDS011;10985;54.182;7.890;2023-07-24T08:53:47;7.32;;;2.50;;
21647;SDS011;10985;54.182;7.890;2023-07-24T08:56:13;11.35;;;3.08;;
21647;SDS011;10985;54.182;7.890;2023-07-24T08:58:39;12.02;;;2.78;;
21647;SDS011;10985;54.182;7.890;2023-07-24T09:01:05;11.18;;;3.10;;
21647;SDS011;10985;54.182;7.890;2023-07-24T09:03:32;11.77;;;3.15;;
21647;SDS011;10985;54.182;7.890;2023-07-24T09:05:58;11.50;;;3.08;;
21647;SDS011;10985;54.182;7.890;2023-07-24T09:10:56;10.20;;;3.47;;
21647;SDS011;10985;54.182;7.890;2023-07-24T09:13:22;16.40;;;4.13;;
21647;SDS011;10985;54.182;7.890;2023-07-24T09:15:47;12.32;;;3.97;;
21647;SDS011;10985;54.182;7.890;2023-07-24T09:18:13;15.40;;;3.53;;
21647;SDS011;10985;54.182;7.890;2023-07-24T09:20:39;9.55;;;3.78;;
21647;SDS011;10985;54.182;7.890;2023-07-24T09:23:06;11.15;;;3.95;;
21647;SDS011;10985;54.182;7.890;2023-07-24T09:25:34;10.25;;;3.50;;
21647;SDS011;10985;54.182;7.890;2023-07-24T09:28:00;8.68;;;3.40;;
21647;SDS011;10985;54.182;7.890;2023-07-24T09:30:26;15.52;;;3.88;;
21647;SDS011;10985;54.182;7.890;2023-07-24T09:32:54;7.38;;;3.65;;
21647;SDS011;10985;54.182;7.890;2023-07-24T09:35:20;14.05;;;4.50;;
21647;SDS011;10985;54.182;7.890;2023-07-24T09:38:01;13.80;;;3.67;;
21647;SDS011;10985;54.182;7.890;2023-07-24T09:40:43;9.70;;;3.25;;
21647;SDS011;10985;54.182;7.890;2023-07-24T09:43:14;8.63;;;3.28;;
21647;SDS011;10985;54.182;7.890;2023-07-24T09:45:44;9.35;;;3.10;;
21647;SDS011;10985;54.182;7.890;2023-07-24T09:48:10;9.98;;;3.45;;
21647;SDS011;10985;54.182;7.890;2023-07-24T09:50:39;12.07;;;3.15;;
21647;SDS011;10985;54.182;7.890;2023-07-24T09:53:06;9.00;;;3.38;;
21647;SDS011;10985;54.182;7.890;2023-07-24T09:55:43;6.70;;;3.40;;
21647;SDS011;10985;54.182;7.890;2023-07-24T09:58:16;6.00;;;3.08;;
21647;SDS011;10985;54.182;7.890;2023-07-24T10:00:43;6.57;;;3.25;;
21647;SDS011;10985;54.182;7.890;2023-07-24T10:03:09;8.50;;;3.85;;
21647;SDS011;10985;54.182;7.890;2023-07-24T10:05:35;13.05;;;4.25;;
21647;SDS011;10985;54.182;7.890;2023-07-24T10:08:01;8.95;;;3.30;;
21647;SDS011;10985;54.182;7.890;2023-07-24T10:10:27;10.07;;;4.00;;
21647;SDS011;10985;54.182;7.890;2023-07-24T10:12:57;9.63;;;4.07;;
21647;SDS011;10985;54.182;7.890;2023-07-24T10:15:23;9.35;;;3.35;;
21647;SDS011;10985;54.182;7.890;2023-07-24T10:17:49;11.25;;;3.53;;
21647;SDS011;10985;54.182;7.890;2023-07-24T10:20:16;13.35;;;3.97;;
21647;SDS011;10985;54.182;7.890;2023-07-24T10:22:42;7.90;;;3.75;;
21647;SDS011;10985;54.182;7.890;2023-07-24T10:25:08;9.77;;;3.10;;
21647;SDS011;10985;54.182;7.890;2023-07-24T10:27:43;7.45;;;3.10;;
21647;SDS011;10985;54.182;7.890;2023-07-24T10:30:11;7.90;;;3.65;;
21647;SDS011;10985;54.182;7.890;2023-07-24T10:32:46;12.25;;;3.33;;
21647;SDS011;10985;54.182;7.890;2023-07-24T10:35:14;8.95;;;2.97;;
21647;SDS011;10985;54.182;7.890;2023-07-24T10:37:40;6.72;;;3.05;;
21647;SDS011;10985;54.182;7.890;2023-07-24T10:40:05;5.90;;;2.95;;
21647;SDS011;10985;54.182;7.890;2023-07-24T10:42:32;11.57;;;3.60;;
21647;SDS011;10985;54.182;7.890;2023-07-24T10:45:08;9.57;;;3.22;;
21647;SDS011;10985;54.182;7.890;2023-07-24T10:47:35;8.82;;;2.97;;
21647;SDS011;10985;54.182;7.890;2023-07-24T10:50:00;9.25;;;3.10;;
21647;SDS011;10985;54.182;7.890;2023-07-24T10:52:29;7.85;;;2.92;;
21647;SDS011;10985;54.182;7.890;2023-07-24T10:54:55;16.92;;;3.35;;
21647;SDS011;10985;54.182;7.890;2023-07-24T10:57:27;11.32;;;3.47;;
21647;SDS011;10985;54.182;7.890;2023-07-24T10:59:53;6.82;;;2.70;;
21647;SDS011;10985;54.182;7.890;2023-07-24T11:02:18;7.82;;;2.90;;
21647;SDS011;10985;54.182;7.890;2023-07-24T11:04:44;10.70;;;3.47;;
21647;SDS011;10985;54.182;7.890;2023-07-24T11:07:11;12.23;;;4.55;;
21647;SDS011;10985;54.182;7.890;2023-07-24T11:09:37;12.13;;;3.33;;
21647;SDS011;10985;54.182;7.890;2023-07-24T11:12:14;9.25;;;3.53;;
21647;SDS011;10985;54.182;7.890;2023-07-24T11:17:16;13.48;;;5.38;;
21647;SDS011;10985;54.182;7.890;2023-07-24T11:19:42;11.13;;;3.95;;
21647;SDS011;10985;54.182;7.890;2023-07-24T11:22:07;8.82;;;4.57;;
21647;SDS011;10985;54.182;7.890;2023-07-24T11:24:41;9.68;;;3.38;;
21647;SDS011;10985;54.182;7.890;2023-07-24T11:27:16;11.23;;;5.40;;
21647;SDS011;10985;54.182;7.890;2023-07-24T11:29:48;7.50;;;4.00;;
21647;SDS011;10985;54.182;7.890;2023-07-24T11:32:20;9.70;;;4.20;;
21647;SDS011;10985;54.182;7.890;2023-07-24T11:34:49;14.35;;;5.25;;
21647;SDS011;10985;54.182;7.890;2023-07-24T11:37:16;7.55;;;4.05;;
21647;SDS011;10985;54.182;7.890;2023-07-24T11:39:43;9.85;;;3.88;;
21647;SDS011;10985;54.182;7.890;2023-07-24T11:42:08;11.60;;;3.90;;
21647;SDS011;10985;54.182;7.890;2023-07-24T11:44:34;7.93;;;3.13;;
21647;SDS011;10985;54.182;7.890;2023-07-24T11:47:00;8.50;;;3.45;;
21647;SDS011;10985;54.182;7.890;2023-07-24T11:49:27;11.35;;;3.20;;
21647;SDS011;10985;54.182;7.890;2023-07-24T11:51:59;8.23;;;3.75;;
21647;SDS011;10985;54.182;7.890;2023-07-24T11:54:25;7.15;;;3.40;;
21647;SDS011;10985;54.182;7.890;2023-07-24T11:56:51;9.05;;;3.30;;
21647;SDS011;10985;54.182;7.890;2023-07-24T11:59:17;9.95;;;3.15;;
21647;SDS011;10985;54.182;7.890;2023-07-24T12:01:46;7.55;;;3.28;;
21647;SDS011;10985;54.182;7.890;2023-07-24T12:04:13;11.68;;;3.53;;
21647;SDS011;10985;54.182;7.890;2023-07-24T12:06:40;7.90;;;2.65;;
21647;SDS011;10985;54.182;7.890;2023-07-24T12:09:05;7.15;;;2.70;;
21647;SDS011;10985;54.182;7.890;2023-07-24T12:11:31;8.02;;;3.78;;
21647;SDS011;10985;54.182;7.890;2023-07-24T12:13:58;6.80;;;3.50;;
21647;SDS011;10985;54.182;7.890;2023-07-24T12:16:23;9.85;;;3.35;;
21647;SDS011;10985;54.182;7.890;2023-07-24T12:18:49;7.80;;;3.70;;
21647;SDS011;10985;54.182;7.890;2023-07-24T12:21:15;8.27;;;3.30;;
21647;SDS011;10985;54.182;7.890;2023-07-24T12:23:40;8.75;;;3.58;;
21647;SDS011;10985;54.182;7.890;2023-07-24T12:26:06;8.50;;;3.13;;
21647;SDS011;10985;54.182;7.890;2023-07-24T12:28:32;8.75;;;3.30;;
21647;SDS011;10985;54.182;7.890;2023-07-24T12:30:57;9.93;;;3.75;;
21647;SDS011;10985;54.182;7.890;2023-07-24T12:33:23;7.18;;;3.40;;
21647;SDS011;10985;54.182;7.890;2023-07-24T12:35:49;8.23;;;3.25;;
21647;SDS011;10985;54.182;7.890;2023-07-24T12:38:15;9.70;;;4.88;;
21647;SDS011;10985;54.182;7.890;2023-07-24T12:40:40;11.68;;;5.18;;
21647;SDS011;10985;54.182;7.890;2023-07-24T12:43:06;11.50;;;4.72;;
21647;SDS011;10985;54.182;7.890;2023-07-24T12:45:31;10.15;;;5.30;;
21647;SDS011;10985;54.182;7.890;2023-07-24T12:47:57;6.90;;;2.92;;
21647;SDS011;10985;54.182;7.890;2023-07-24T12:50:23;10.68;;;3.00;;
21647;SDS011;10985;54.182;7.890;2023-07-24T12:52:48;9.30;;;4.00;;
21647;SDS011;10985;54.182;7.890;2023-07-24T12:55:14;9.25;;;3.90;;
21647;SDS011;10985;54.182;7.890;2023-07-24T12:57:39;9.65;;;3.35;;
21647;SDS011;10985;54.182;7.890;2023-07-24T13:00:05;12.00;;;3.72;;
21647;SDS011;10985;54.182;7.890;2023-07-24T13:02:31;7.80;;;4.43;;
21647;SDS011;10985;54.182;7.890;2023-07-24T13:04:57;12.82;;;6.10;;
21647;SDS011;10985;54.182;7.890;2023-07-24T13:07:22;14.50;;;4.20;;
21647;SDS011;10985;54.182;7.890;2023-07-24T13:09:48;7.15;;;4.72;;
21647;SDS011;10985;54.182;7.890;2023-07-24T13:12:14;4.50;;;2.60;;
21647;SDS011;10985;54.182;7.890;2023-07-24T13:14:39;7.15;;;3.92;;
21647;SDS011;10985;54.182;7.890;2023-07-24T13:17:05;6.55;;;2.90;;
21647;SDS011;10985;54.182;7.890;2023-07-24T13:19:31;7.65;;;2.63;;
21647;SDS011;10985;54.182;7.890;2023-07-24T13:21:57;10.00;;;3.70;;
21647;SDS011;10985;54.182;7.890;2023-07-24T13:24:22;7.13;;;3.38;;
21647;SDS011;10985;54.182;7.890;2023-07-24T13:26:48;6.70;;;3.20;;
21647;SDS011;10985;54.182;7.890;2023-07-24T13:29:14;8.15;;;3.63;;
21647;SDS011;10985;54.182;7.890;2023-07-24T13:31:40;8.80;;;3.13;;
21647;SDS011;10985;54.182;7.890;2023-07-24T13:34:05;10.98;;;2.72;;
21647;SDS011;10985;54.182;7.890;2023-07-24T13:36:33;8.27;;;5.00;;
21647;SDS011;10985;54.182;7.890;2023-07-24T13:38:58;14.20;;;10.65;;
21647;SDS011;10985;54.182;7.890;2023-07-24T13:41:24;13.73;;;9.30;;
21647;SDS011;10985;54.182;7.890;2023-07-24T13:43:49;8.15;;;3.60;;
21647;SDS011;10985;54.182;7.890;2023-07-24T13:46:15;5.75;;;3.42;;
21647;SDS011;10985;54.182;7.890;2023-07-24T13:48:41;9.85;;;3.15;;
21647;SDS011;10985;54.182;7.890;2023-07-24T13:51:06;14.73;;;7.07;;
21647;SDS011;10985;54.182;7.890;2023-07-24T13:53:32;15.20;;;7.65;;
21647;SDS011;10985;54.182;7.890;2023-07-24T13:55:57;11.30;;;4.45;;
21647;SDS011;10985;54.182;7.890;2023-07-24T13:58:23;11.20;;;4.13;;
21647;SDS011;10985;54.182;7.890;2023-07-24T14:00:48;6.95;;;3.17;;
21647;SDS011;10985;54.182;7.890;2023-07-24T14:03:14;9.63;;;3.10;;
21647;SDS011;10985;54.182;7.890;2023-07-24T14:05:40;11.52;;;4.80;;
21647;SDS011;10985;54.182;7.890;2023-07-24T14:08:06;11.35;;;3.58;;
21647;SDS011;10985;54.182;7.890;2023-07-24T14:10:32;12.30;;;3.40;;
21647;SDS011;10985;54.182;7.890;2023-07-24T14:12:57;13.68;;;3.08;;
21647;SDS011;10985;54.182;7.890;2023-07-24T14:15:23;10.90;;;3.17;;
21647;SDS011;10985;54.182;7.890;2023-07-24T14:17:49;13.48;;;3.03;;
21647;SDS011;10985;54.182;7.890;2023-07-24T14:20:15;11.57;;;2.80;;
21647;SDS011;10985;54.182;7.890;2023-07-24T14:22:40;14.45;;;3.25;;
21647;SDS011;10985;54.182;7.890;2023-07-24T14:25:06;9.40;;;2.67;;
21647;SDS011;10985;54.182;7.890;2023-07-24T14:27:32;8.10;;;3.17;;
21647;SDS011;10985;54.182;7.890;2023-07-24T14:29:58;8.25;;;3.13;;
21647;SDS011;10985;54.182;7.890;2023-07-24T14:32:24;9.02;;;2.40;;
21647;SDS011;10985;54.182;7.890;2023-07-24T14:34:50;9.52;;;3.15;;
21647;SDS011;10985;54.182;7.890;2023-07-24T14:37:17;15.57;;;3.45;;
21647;SDS011;10985;54.182;7.890;2023-07-24T14:39:43;9.45;;;2.30;;
21647;SDS011;10985;54.182;7.890;2023-07-24T14:42:09;7.95;;;2.20;;